createdAt,value
2022-09-14T00:00:10.519Z,13.74
2022-09-14T00:05:34.218Z,13.69
2022-09-14T00:10:59.210Z,13.69
2022-09-14T00:16:25.424Z,13.65
2022-09-14T00:21:49.148Z,13.63
2022-09-14T00:27:12.354Z,13.63
2022-09-14T00:32:34.774Z,13.58
2022-09-14T00:37:56.967Z,13.55
2022-09-14T00:43:22.349Z,13.47
2022-09-14T00:48:45.724Z,13.39
2022-09-14T00:54:08.978Z,13.34
2022-09-14T00:59:36.533Z,13.25
2022-09-14T01:04:59.250Z,13.22
2022-09-14T01:10:35.248Z,13.21
2022-09-14T01:16:08.360Z,13.17
2022-09-14T01:21:41.713Z,13.15
2022-09-14T01:27:17.745Z,13.15
2022-09-14T01:33:18.072Z,13.15
2022-09-14T01:38:53.691Z,13.14
2022-09-14T01:44:23.690Z,13.12
2022-09-14T01:49:45.723Z,13.10
2022-09-14T01:55:18.283Z,13.11
2022-09-14T02:00:41.581Z,13.05
2022-09-14T02:06:29.824Z,13.02
2022-09-14T02:11:53.028Z,12.92
2022-09-14T02:17:15.182Z,12.91
2022-09-14T02:22:42.543Z,12.92
2022-09-14T02:28:04.674Z,12.91
2022-09-14T02:33:54.369Z,12.92
2022-09-14T02:39:26.684Z,12.90
2022-09-14T02:44:56.266Z,12.86
2022-09-14T02:50:32.565Z,12.81
2022-09-14T03:01:33.284Z,12.83
2022-09-14T03:06:55.950Z,12.74
2022-09-14T03:12:18.763Z,12.72
2022-09-14T03:17:40.921Z,12.67
2022-09-14T03:23:05.060Z,12.61
2022-09-14T03:28:28.225Z,12.56
2022-09-14T03:33:50.977Z,12.51
2022-09-14T03:39:14.753Z,12.45
2022-09-14T03:44:36.867Z,12.35
2022-09-14T03:49:59.099Z,12.13
2022-09-14T03:55:23.063Z,11.91
2022-09-14T04:00:47.059Z,11.79
2022-09-14T04:06:16.607Z,11.79
2022-09-14T04:11:39.842Z,11.69
2022-09-14T04:17:01.995Z,11.73
2022-09-14T04:22:24.611Z,11.87
2022-09-14T04:27:59.002Z,11.95
2022-09-14T04:33:12.195Z,12.00
2022-09-14T04:38:35.724Z,12.11
2022-09-14T04:43:59.107Z,12.17
2022-09-14T04:49:22.255Z,12.16
2022-09-14T04:54:44.808Z,12.16
2022-09-14T05:00:07.054Z,12.15
2022-09-14T05:05:29.306Z,12.19
2022-09-14T05:10:51.491Z,12.24
2022-09-14T05:16:27.644Z,12.25
2022-09-14T05:21:51.200Z,12.25
2022-09-14T05:27:13.394Z,12.28
2022-09-14T05:32:35.741Z,12.32
2022-09-14T05:37:58.384Z,12.34
2022-09-14T05:43:22.180Z,12.40
2022-09-14T05:48:45.470Z,12.43
2022-09-14T05:54:12.733Z,12.43
2022-09-14T05:59:34.874Z,12.46
2022-09-14T06:04:57.050Z,12.45
2022-09-14T06:10:20.866Z,12.44
2022-09-14T06:15:42.991Z,12.48
2022-09-14T06:21:09.957Z,12.58
2022-09-14T06:26:32.469Z,12.74
2022-09-14T06:31:54.608Z,12.82
2022-09-14T06:37:16.841Z,13.00
2022-09-14T06:42:38.971Z,13.15
2022-09-14T06:48:01.501Z,13.22
2022-09-14T06:53:23.639Z,13.45
2022-09-14T06:58:48.085Z,13.52
2022-09-14T07:04:12.030Z,13.63
2022-09-14T07:09:35.748Z,13.76
2022-09-14T07:14:57.890Z,13.80
2022-09-14T07:20:20.329Z,13.70
2022-09-14T07:25:42.792Z,13.79
2022-09-14T07:31:05.290Z,13.83
2022-09-14T07:36:32.727Z,14.00
2022-09-14T07:41:54.465Z,13.85
2022-09-14T07:47:16.661Z,13.81
2022-09-14T07:52:39.839Z,13.97
2022-09-14T07:58:02.299Z,14.23
2022-09-14T08:03:24.560Z,14.23
2022-09-14T08:08:49.955Z,14.39
2022-09-14T08:14:18.046Z,14.23
2022-09-14T08:19:42.053Z,14.36
2022-09-14T08:25:04.699Z,14.25
2022-09-14T08:30:28.571Z,14.59
2022-09-14T08:35:58.508Z,14.60
2022-09-14T08:41:32.013Z,14.60
2022-09-14T08:47:09.164Z,14.74
2022-09-14T08:52:48.532Z,14.80
2022-09-14T08:58:18.532Z,14.97
2022-09-14T09:03:59.102Z,14.99
2022-09-14T09:09:41.175Z,15.46
2022-09-14T09:15:08.383Z,15.65
2022-09-14T09:20:52.963Z,15.90
2022-09-14T09:26:32.250Z,16.43
2022-09-14T09:31:59.762Z,16.23
2022-09-14T09:37:29.363Z,15.92
2022-09-14T09:43:12.872Z,16.21
2022-09-14T09:48:51.322Z,17.05
2022-09-14T09:54:33.300Z,16.80
2022-09-14T09:59:57.653Z,16.07
2022-09-14T10:05:32.496Z,16.53
2022-09-14T10:10:57.061Z,16.46
2022-09-14T10:16:39.540Z,16.12
2022-09-14T10:22:30.108Z,17.53
2022-09-14T10:27:58.007Z,17.31
2022-09-14T10:33:24.619Z,17.23
2022-09-14T10:39:10.084Z,17.31
2022-09-14T10:44:43.725Z,17.15
2022-09-14T10:50:36.380Z,17.15
2022-09-14T10:56:21.073Z,17.07
2022-09-14T11:02:21.362Z,17.05
2022-09-14T11:08:14.487Z,17.15
2022-09-14T11:13:50.329Z,17.57
2022-09-14T11:19:42.616Z,17.29
2022-09-14T11:25:21.729Z,17.27
2022-09-14T11:30:54.655Z,17.00
2022-09-14T11:36:34.028Z,16.96
2022-09-14T11:42:09.642Z,18.40
2022-09-14T11:47:41.002Z,17.89
2022-09-14T11:53:12.733Z,17.87
2022-09-14T11:58:46.918Z,19.56
2022-09-14T12:04:17.165Z,19.63
2022-09-14T12:09:46.319Z,19.29
2022-09-14T12:15:11.254Z,20.72
2022-09-14T12:20:55.533Z,20.81
2022-09-14T12:26:31.618Z,20.24
2022-09-14T12:32:11.773Z,20.38
2022-09-14T12:37:41.415Z,20.78
2022-09-14T12:43:05.215Z,19.83
2022-09-14T12:48:51.913Z,20.34
2022-09-14T12:55:03.608Z,20.72
2022-09-14T13:00:34.620Z,20.58
2022-09-14T13:05:57.524Z,20.88
2022-09-14T13:11:33.460Z,20.28
2022-09-14T13:17:03.479Z,20.79
2022-09-14T13:22:41.015Z,20.79
2022-09-14T13:28:06.464Z,20.63
2022-09-14T13:33:36.656Z,19.68
2022-09-14T13:39:02.042Z,21.05
2022-09-14T13:44:25.658Z,20.80
2022-09-14T13:49:48.791Z,19.15
2022-09-14T13:55:24.453Z,19.90
2022-09-14T14:00:56.488Z,20.93
2022-09-14T14:06:39.727Z,20.23
2022-09-14T14:12:06.762Z,19.03
2022-09-14T14:17:38.178Z,18.59
2022-09-14T14:23:26.667Z,18.99
2022-09-14T14:28:50.447Z,18.81
2022-09-14T14:34:14.329Z,18.49
2022-09-14T14:39:39.371Z,18.26
2022-09-14T14:45:02.663Z,18.06
2022-09-14T14:50:36.461Z,17.89
2022-09-14T14:55:59.088Z,17.69
2022-09-14T15:01:22.449Z,17.72
2022-09-14T15:06:46.283Z,18.43
2022-09-14T15:12:09.712Z,18.64
2022-09-14T15:17:32.294Z,18.19
2022-09-14T15:22:56.036Z,18.06
2022-09-14T15:28:18.864Z,18.10
2022-09-14T15:33:41.645Z,18.41
2022-09-14T15:39:04.103Z,18.58
2022-09-14T15:44:26.346Z,18.30
2022-09-14T15:49:49.133Z,17.98
2022-09-14T15:55:12.387Z,17.83
2022-09-14T16:00:35.065Z,17.50
2022-09-14T16:05:58.584Z,17.37
2022-09-14T16:11:21.984Z,17.32
2022-09-14T16:16:45.587Z,17.13
2022-09-14T16:22:07.885Z,16.95
2022-09-14T16:27:30.560Z,16.78
2022-09-14T16:32:53.448Z,16.62
2022-09-14T16:38:16.188Z,16.39
2022-09-14T16:43:41.879Z,16.12
2022-09-14T16:49:06.646Z,15.82
2022-09-14T16:54:32.144Z,15.65
2022-09-14T16:59:54.415Z,15.32
2022-09-14T17:05:16.609Z,15.10
2022-09-14T17:10:40.392Z,14.70
2022-09-14T17:16:14.424Z,14.51
2022-09-14T17:21:41.566Z,14.38
2022-09-14T17:27:04.575Z,14.34
2022-09-14T17:32:27.789Z,14.07
2022-09-14T17:37:50.759Z,13.89
2022-09-14T17:43:13.414Z,13.68
2022-09-14T17:48:43.126Z,13.73
2022-09-14T17:54:07.381Z,13.72
2022-09-14T17:59:32.633Z,13.52
2022-09-14T18:04:55.291Z,13.48
2022-09-14T18:10:18.537Z,13.56
2022-09-14T18:15:42.054Z,13.44
2022-09-14T18:21:05.366Z,13.37
2022-09-14T18:26:27.747Z,13.33
2022-09-14T18:31:50.102Z,13.31
2022-09-14T18:37:12.301Z,13.22
2022-09-14T18:42:35.221Z,13.18
2022-09-14T18:47:58.114Z,13.31
2022-09-14T18:53:20.982Z,13.46
2022-09-14T18:58:49.600Z,13.43
2022-09-14T19:04:15.896Z,13.34
2022-09-14T19:09:38.569Z,13.29
2022-09-14T19:15:00.777Z,13.32
2022-09-14T19:20:23.676Z,13.23
2022-09-14T19:25:52.466Z,13.16
2022-09-14T19:31:28.586Z,13.03
2022-09-14T19:36:52.407Z,12.99
2022-09-14T19:42:14.939Z,13.03
2022-09-14T19:47:37.073Z,13.24
2022-09-14T19:53:03.918Z,13.32
2022-09-14T19:58:23.432Z,13.33
2022-09-14T20:03:46.313Z,13.26
2022-09-14T20:09:17.813Z,13.20
2022-09-14T20:14:41.659Z,13.21
2022-09-14T20:20:03.804Z,13.27
2022-09-14T20:25:26.322Z,13.28
2022-09-14T20:30:48.474Z,13.26
2022-09-14T20:36:25.515Z,13.20
2022-09-14T20:41:49.066Z,13.10
2022-09-14T20:47:11.199Z,13.04
2022-09-14T20:52:33.852Z,12.94
2022-09-14T20:57:56.706Z,12.79
2022-09-14T21:03:19.281Z,12.60
2022-09-14T21:08:43.083Z,12.48
2022-09-14T21:14:06.887Z,12.34
2022-09-14T21:19:36.578Z,12.24
2022-09-14T21:24:53.389Z,12.16
2022-09-14T21:30:16.319Z,12.06
2022-09-14T21:35:38.564Z,12.00
2022-09-14T21:41:02.498Z,11.90
2022-09-14T21:46:25.430Z,11.80
2022-09-14T21:51:55.654Z,11.83
2022-09-14T21:57:12.298Z,11.80
2022-09-14T22:02:34.755Z,11.80
2022-09-14T22:07:58.148Z,11.74
2022-09-14T22:13:20.366Z,11.64
2022-09-14T22:18:43.258Z,11.50
2022-09-14T22:24:13.499Z,11.34
2022-09-14T22:29:36.268Z,11.18
2022-09-14T22:34:58.491Z,11.09
2022-09-14T22:40:21.101Z,11.13
2022-09-14T22:45:43.294Z,11.17
2022-09-14T22:51:08.029Z,11.16
2022-09-14T22:56:35.581Z,11.22
2022-09-14T23:01:59.377Z,11.30
2022-09-14T23:07:21.528Z,11.30
2022-09-14T23:12:43.684Z,11.27
2022-09-14T23:18:05.888Z,11.26
2022-09-14T23:23:30.149Z,11.26
2022-09-14T23:28:54.382Z,11.18
2022-09-14T23:34:18.259Z,11.09
2022-09-14T23:39:41.630Z,11.14
2022-09-14T23:45:04.350Z,11.15
2022-09-14T23:50:28.785Z,11.09
2022-09-14T23:55:51.277Z,11.06
